Arvada, WY

12:31 PM MDT on October 23, 2014 (GMT -0600)
Gillette-Campbell County | Change Station
CLOSE
Current Station
Airport
Location: Gillette,
Elevation: 4364 ft
Nearby Weather Stations

Elev 4364 ft 44.34 °N, 105.54 °W | Updated 38 minutes ago

Clear
Clear
64 °F
Feels Like 64 °F
N
13
Wind Variable Wind from WSW

Today
High -- | Low -- °F
--% Chance of Precip.
Yesterday
High -- | Low -- °F
Precip. -- in
7:30 AM 6:06 PM
Waning Crescent, 0% visible
Pressure 29.89 in
Visibility 10.0 miles
Clouds Clear
Dew Point 24 °F
Humidity 22%
Rainfall 0.00 in
Snow Depth Not available.
UV 4 out of 12
Pollen 1.80 out of 12
Air Quality Not available.
Flu Activity Sporadic
METAR KGCC 231753Z AUTO 24011KT 10SM CLR 18/M04 A2995 RMK AO2 SLP122 T01781044 10178 20061 56006

More Conditions Fewer Conditions

Pressure 29.89 in
Visibility 10.0 miles
Clouds Clear
Dew Point 24 °F
Humidity 22%
Rainfall 0.00 in
Snow Depth Not available.
UV 4 out of 12
Pollen 1.80 out of 12
Air Quality Not available.
Flu Activity Sporadic
METAR KGCC 231753Z AUTO 24011KT 10SM CLR 18/M04 A2995 RMK AO2 SLP122 T01781044 10178 20061 56006

More Conditions Fewer Conditions

10-Day Weather Forecast

Almanac

Astronomy

Oct. 23, 2014 Rise Set
Actual Time 7:30 AM MDT 6:06 PM MDT
Civil Twilight 7:00 AM MDT 6:36 PM MDT
Nautical Twilight 6:26 AM MDT 7:10 PM MDT
Astronomical Twilight 5:52 AM MDT 7:44 PM MDT
Moon 7:11 AM MDT 6:09 PM MDT
Length of Visible Light 11h 35m
Length of Day
10h 36m
Tomorrow will be 2m 54s shorter.
Waning Crescent, 0% of the Moon is Illuminated
Today
Waning Crescent
Oct 23
New
Oct 30
First Quarter
Nov 6
Full
Nov 14
Last Quarter

Today's Extremes

State Highs State Lows

Community

WunderPhotos

Upload Photos

1,764,338 photos uploaded!

WunderBlogs® & News

Nearby

Snow Depth

Station Depth Elevation
Cloud Peak Reservoir 0 in 9860 ft
Big Goose 0 in 7990 ft
Powder River Pass 0 in 9480 ft
Sucker Creek 0 in 8880 ft
Shell Creek 1 in 9580 ft

Earthquake Activity

City Distance Mag. Time & Date
No recent earthquake activity has been reported nearby.
Minimum magnitude displayed is 2.5.

Coastal Water Temperatures

Place Temperature
No Stations Reporting

Nearby Weather Stations